createdAt,value
2022-09-21T00:01:09.798Z,0.40
2022-09-21T00:03:37.607Z,0.35
2022-09-21T00:06:06.014Z,0.50
2022-09-21T00:08:33.714Z,0.40
2022-09-21T00:11:01.521Z,0.40
2022-09-21T00:13:29.235Z,0.30
2022-09-21T00:15:57.009Z,0.30
2022-09-21T00:18:26.416Z,0.30
2022-09-21T00:20:53.779Z,0.30
2022-09-21T00:23:21.229Z,0.40
2022-09-21T00:25:48.590Z,0.40
2022-09-21T00:28:16.624Z,0.30
2022-09-21T00:30:43.975Z,0.30
2022-09-21T00:33:11.381Z,0.40
2022-09-21T00:35:41.263Z,0.30
2022-09-21T00:38:08.607Z,0.30
2022-09-21T00:40:35.988Z,0.40
2022-09-21T00:43:14.273Z,0.40
2022-09-21T00:45:42.858Z,0.40
2022-09-21T00:48:10.992Z,0.30
2022-09-21T00:50:43.566Z,0.30
2022-09-21T00:53:11.666Z,0.30
2022-09-21T00:55:43.371Z,0.30
2022-09-21T00:58:15.523Z,0.32
2022-09-21T01:00:43.544Z,0.40
2022-09-21T01:03:13.132Z,0.40
2022-09-21T01:05:41.807Z,0.40
2022-09-21T01:08:12.219Z,0.40
2022-09-21T01:10:51.603Z,0.30
2022-09-21T01:13:30.434Z,0.30
2022-09-21T01:16:07.308Z,0.40
2022-09-21T01:18:44.096Z,0.30
2022-09-21T01:21:20.706Z,0.30
2022-09-21T01:24:06.034Z,0.20
2022-09-21T01:26:54.122Z,0.30
2022-09-21T01:29:27.742Z,0.30
2022-09-21T01:32:03.033Z,0.30
2022-09-21T01:34:34.437Z,0.32
2022-09-21T01:37:10.310Z,0.30
2022-09-21T01:39:39.727Z,0.30
2022-09-21T01:42:08.827Z,0.35
2022-09-21T01:44:40.668Z,0.30
2022-09-21T01:47:14.011Z,0.30
2022-09-21T01:49:44.733Z,0.40
2022-09-21T01:52:16.044Z,0.40
2022-09-21T01:54:48.715Z,0.32
2022-09-21T01:57:20.025Z,0.30
2022-09-21T01:59:53.803Z,0.30
2022-09-21T02:02:25.887Z,0.30
2022-09-21T02:04:53.349Z,0.40
2022-09-21T02:07:20.978Z,0.35
2022-09-21T02:09:48.946Z,0.50
2022-09-21T02:12:19.123Z,0.40
2022-09-21T02:14:47.186Z,0.38
2022-09-21T02:17:29.525Z,0.35
2022-09-21T02:20:08.085Z,0.55
2022-09-21T02:22:41.948Z,0.30
2022-09-21T02:25:14.033Z,0.40
2022-09-21T02:27:50.387Z,0.52
2022-09-21T02:30:20.554Z,0.30
2022-09-21T02:32:57.225Z,0.40
2022-09-21T02:35:33.662Z,0.40
2022-09-21T02:38:12.165Z,0.30
2022-09-21T02:40:45.483Z,0.30
2022-09-21T02:43:20.804Z,0.40
2022-09-21T02:45:53.959Z,0.40
2022-09-21T02:48:30.327Z,0.30
2022-09-21T02:50:59.911Z,0.32
2022-09-21T02:53:31.723Z,0.30
2022-09-21T02:56:02.849Z,0.30
2022-09-21T02:58:30.902Z,0.30
2022-09-21T03:00:59.744Z,0.30
2022-09-21T03:03:28.722Z,0.30
2022-09-21T03:05:56.421Z,0.30
2022-09-21T03:08:26.536Z,0.30
2022-09-21T03:10:54.211Z,0.30
2022-09-21T03:13:21.578Z,0.28
2022-09-21T03:15:48.948Z,0.30
2022-09-21T03:18:16.590Z,0.35
2022-09-21T03:20:46.848Z,0.40
2022-09-21T03:23:14.901Z,0.30
2022-09-21T03:25:44.948Z,0.30
2022-09-21T03:28:12.542Z,0.30
2022-09-21T03:30:40.475Z,0.40
2022-09-21T03:33:08.250Z,0.30
2022-09-21T03:35:35.648Z,0.30
2022-09-21T03:38:04.367Z,0.30
2022-09-21T03:40:32.486Z,0.30
2022-09-21T03:42:59.876Z,0.38
2022-09-21T03:45:27.585Z,0.30
2022-09-21T03:47:57.539Z,0.30
2022-09-21T03:50:25.494Z,0.40
2022-09-21T03:52:52.925Z,0.40
2022-09-21T03:55:22.563Z,0.40
2022-09-21T03:57:49.927Z,0.30
2022-09-21T04:00:17.885Z,0.30
2022-09-21T04:02:45.296Z,0.40
2022-09-21T04:05:15.905Z,0.30
2022-09-21T04:07:45.696Z,0.45
2022-09-21T04:10:14.977Z,0.40
2022-09-21T04:12:44.657Z,0.40
2022-09-21T04:15:12.371Z,0.40
2022-09-21T04:17:41.049Z,0.40
2022-09-21T04:20:09.645Z,0.40
2022-09-21T04:22:42.566Z,0.40
2022-09-21T04:25:12.627Z,0.30
2022-09-21T04:27:41.012Z,0.30
2022-09-21T04:30:12.256Z,0.35
2022-09-21T04:32:39.883Z,0.30
2022-09-21T04:35:07.827Z,0.40
2022-09-21T04:37:35.185Z,0.38
2022-09-21T04:40:03.163Z,0.30
2022-09-21T04:42:30.519Z,0.30
2022-09-21T04:44:57.891Z,0.30
2022-09-21T04:47:26.618Z,0.30
2022-09-21T04:49:54.284Z,0.40
2022-09-21T04:52:21.623Z,0.40
2022-09-21T04:54:48.981Z,0.40
2022-09-21T04:57:16.379Z,0.30
2022-09-21T04:59:43.715Z,0.40
2022-09-21T05:02:11.365Z,0.40
2022-09-21T05:04:40.017Z,0.40
2022-09-21T05:07:07.388Z,0.40
2022-09-21T05:09:52.248Z,0.40
2022-09-21T05:12:19.587Z,0.40
2022-09-21T05:14:46.924Z,0.40
2022-09-21T05:17:14.544Z,0.30
2022-09-21T05:19:43.388Z,0.30
2022-09-21T05:22:10.854Z,0.40
2022-09-21T05:24:38.192Z,0.40
2022-09-21T05:27:05.981Z,0.40
2022-09-21T05:29:34.147Z,0.30
2022-09-21T05:32:07.175Z,0.40
2022-09-21T05:34:43.510Z,0.40
2022-09-21T05:37:24.978Z,0.30
2022-09-21T05:39:52.778Z,0.32
2022-09-21T05:42:20.651Z,0.40
2022-09-21T05:44:49.437Z,0.47
2022-09-21T05:47:25.294Z,0.30
2022-09-21T05:50:03.385Z,0.73
2022-09-21T05:52:40.217Z,0.30
2022-09-21T05:55:21.001Z,0.40
2022-09-21T05:57:58.142Z,0.50
2022-09-21T06:00:28.471Z,0.40
2022-09-21T06:03:17.587Z,0.35
2022-09-21T06:05:45.905Z,0.40
2022-09-21T06:08:18.785Z,0.38
2022-09-21T06:10:46.216Z,0.40
2022-09-21T06:13:13.668Z,0.40
2022-09-21T06:15:42.156Z,0.40
2022-09-21T06:18:15.486Z,0.30
2022-09-21T06:20:44.999Z,0.40
2022-09-21T06:23:15.311Z,0.60
2022-09-21T06:25:42.957Z,0.40
2022-09-21T06:28:12.284Z,0.43
2022-09-21T06:30:42.119Z,0.40
2022-09-21T06:33:10.410Z,0.47
2022-09-21T06:35:40.222Z,0.43
2022-09-21T06:38:08.827Z,0.40
2022-09-21T06:40:37.953Z,0.40
2022-09-21T06:43:06.647Z,0.40
2022-09-21T06:45:34.287Z,0.50
2022-09-21T06:48:01.911Z,0.40
2022-09-21T06:50:29.640Z,0.40
2022-09-21T06:53:00.239Z,0.40
2022-09-21T06:55:27.734Z,0.40
2022-09-21T06:58:01.174Z,0.30
2022-09-21T07:00:28.542Z,0.30
2022-09-21T07:02:55.899Z,0.40
2022-09-21T07:05:23.280Z,0.50
2022-09-21T07:07:53.699Z,0.40
2022-09-21T07:10:21.261Z,0.40
2022-09-21T07:12:49.452Z,0.40
2022-09-21T07:15:19.107Z,0.40
2022-09-21T07:17:50.323Z,0.40
2022-09-21T07:20:19.771Z,0.45
2022-09-21T07:22:47.131Z,0.43
2022-09-21T07:25:14.714Z,0.50
2022-09-21T07:27:42.389Z,0.40
2022-09-21T07:30:11.073Z,0.40
2022-09-21T07:32:39.737Z,0.40
2022-09-21T07:35:07.907Z,0.50
2022-09-21T07:37:35.309Z,0.30
2022-09-21T07:40:05.944Z,0.40
2022-09-21T07:42:33.403Z,0.40
2022-09-21T07:45:04.861Z,0.30
2022-09-21T07:47:32.685Z,0.40
2022-09-21T07:50:01.364Z,0.50
2022-09-21T07:52:28.922Z,0.30
2022-09-21T07:54:56.253Z,0.40
2022-09-21T07:57:41.261Z,0.30
2022-09-21T08:00:10.064Z,0.40
2022-09-21T08:02:37.472Z,0.30
2022-09-21T08:05:06.544Z,0.30
2022-09-21T08:07:35.187Z,0.40
2022-09-21T08:10:02.549Z,0.30
2022-09-21T08:12:29.911Z,0.40
2022-09-21T08:14:57.269Z,0.30
2022-09-21T08:17:24.873Z,0.40
2022-09-21T08:19:52.211Z,0.40
2022-09-21T08:22:24.602Z,0.40
2022-09-21T08:24:52.455Z,0.40
2022-09-21T08:27:20.696Z,0.30
2022-09-21T08:29:48.331Z,0.30
2022-09-21T08:32:33.037Z,0.35
2022-09-21T08:35:03.117Z,0.38
2022-09-21T08:37:33.271Z,0.40
2022-09-21T08:40:02.536Z,0.50
2022-09-21T08:42:44.044Z,0.60
2022-09-21T08:45:17.768Z,0.40
2022-09-21T08:47:46.742Z,0.50
2022-09-21T08:50:27.665Z,0.47
2022-09-21T08:53:02.483Z,0.30
2022-09-21T08:55:29.884Z,0.40
2022-09-21T08:57:57.316Z,0.40
2022-09-21T09:00:25.015Z,0.40
2022-09-21T09:03:14.900Z,0.32
2022-09-21T09:05:48.904Z,0.40
2022-09-21T09:08:31.819Z,0.52
2022-09-21T09:11:11.032Z,0.30
2022-09-21T09:14:00.676Z,0.40
2022-09-21T09:16:33.397Z,0.30
2022-09-21T09:19:06.776Z,0.30
2022-09-21T09:21:38.721Z,0.40
2022-09-21T09:24:12.401Z,0.30
2022-09-21T09:26:45.286Z,0.35
2022-09-21T09:29:21.702Z,0.40
2022-09-21T09:31:50.870Z,0.28
2022-09-21T09:34:25.136Z,0.30
2022-09-21T09:36:59.647Z,0.30
2022-09-21T09:39:30.109Z,0.30
2022-09-21T09:42:07.139Z,0.40
2022-09-21T09:44:55.421Z,0.40
2022-09-21T09:47:33.992Z,0.40
2022-09-21T09:50:07.439Z,0.40
2022-09-21T09:52:34.980Z,0.40
2022-09-21T09:55:16.795Z,0.30
2022-09-21T09:57:44.543Z,0.40
2022-09-21T10:00:15.081Z,0.50
2022-09-21T10:02:48.170Z,0.50
2022-09-21T10:05:22.441Z,0.50
2022-09-21T10:10:33.112Z,0.30
2022-09-21T10:13:10.522Z,0.22
2022-09-21T10:15:44.596Z,0.30
2022-09-21T10:18:21.680Z,0.35
2022-09-21T10:20:57.407Z,0.30
2022-09-21T10:23:25.710Z,0.47
2022-09-21T10:26:08.657Z,0.30
2022-09-21T10:28:36.284Z,0.30
2022-09-21T10:31:13.322Z,0.50
2022-09-21T10:33:49.147Z,0.40
2022-09-21T10:36:30.774Z,0.40
2022-09-21T10:39:25.291Z,0.40
2022-09-21T10:41:57.818Z,0.30
2022-09-21T10:44:28.716Z,0.32
2022-09-21T10:46:57.642Z,0.30
2022-09-21T10:49:28.039Z,0.35
2022-09-21T10:51:58.018Z,0.30
2022-09-21T10:54:28.806Z,0.22
2022-09-21T10:57:02.136Z,0.20
2022-09-21T10:59:32.039Z,0.20
2022-09-21T11:02:00.924Z,0.30
2022-09-21T11:04:35.308Z,0.30
2022-09-21T11:07:10.048Z,0.30
2022-09-21T11:09:42.760Z,0.30
2022-09-21T11:12:26.897Z,0.40
2022-09-21T11:15:01.786Z,0.30
2022-09-21T11:17:37.430Z,0.38
2022-09-21T11:20:16.732Z,0.40
2022-09-21T11:22:57.394Z,0.30
2022-09-21T11:25:36.569Z,0.30
2022-09-21T11:28:14.481Z,0.30
2022-09-21T11:31:07.091Z,0.20
2022-09-21T11:33:49.472Z,0.30
2022-09-21T11:36:23.381Z,0.20
2022-09-21T11:38:59.291Z,0.20
2022-09-21T11:41:51.123Z,0.30
2022-09-21T11:44:36.310Z,0.20
2022-09-21T11:47:17.526Z,0.20
2022-09-21T11:50:07.767Z,0.22
2022-09-21T11:52:55.828Z,0.30
2022-09-21T11:55:44.430Z,0.43
2022-09-21T11:58:21.818Z,0.50
2022-09-21T12:00:59.548Z,0.60
2022-09-21T12:03:38.954Z,0.40
2022-09-21T12:06:21.327Z,0.40
2022-09-21T12:09:01.564Z,0.40
2022-09-21T12:11:36.784Z,0.50
2022-09-21T12:14:15.210Z,0.50
2022-09-21T12:16:52.337Z,0.38
2022-09-21T12:19:27.741Z,0.30
2022-09-21T12:21:59.666Z,0.40
2022-09-21T12:24:32.505Z,0.40
2022-09-21T12:27:04.893Z,0.35
2022-09-21T12:29:39.142Z,0.30
2022-09-21T12:34:43.294Z,0.30
2022-09-21T12:37:16.106Z,0.30
2022-09-21T12:39:48.026Z,0.30
2022-09-21T12:42:28.164Z,0.50
2022-09-21T12:45:00.639Z,0.50
2022-09-21T12:47:42.279Z,0.55
2022-09-21T12:50:20.451Z,0.50
2022-09-21T12:52:49.398Z,0.50
2022-09-21T12:55:33.045Z,0.40
2022-09-21T12:58:16.889Z,0.50
2022-09-21T13:00:52.665Z,0.60
2022-09-21T13:03:28.610Z,0.47
2022-09-21T13:06:13.304Z,0.60
2022-09-21T13:08:44.900Z,0.65
2022-09-21T13:11:12.579Z,0.60
2022-09-21T13:13:50.047Z,0.77
2022-09-21T13:16:25.666Z,0.60
2022-09-21T13:18:59.123Z,0.63
2022-09-21T13:21:31.706Z,0.60
2022-09-21T13:24:01.313Z,0.50
2022-09-21T13:26:38.142Z,0.40
2022-09-21T13:29:31.381Z,0.50
2022-09-21T13:32:00.968Z,0.38
2022-09-21T13:34:32.731Z,0.40
2022-09-21T13:37:32.566Z,0.50
2022-09-21T13:40:42.215Z,0.70
2022-09-21T13:43:25.000Z,0.63
2022-09-21T13:45:58.072Z,0.80
2022-09-21T13:48:30.234Z,0.65
2022-09-21T13:51:02.788Z,0.65
2022-09-21T13:53:35.920Z,0.65
2022-09-21T13:56:09.727Z,0.65
2022-09-21T13:58:43.831Z,0.77
2022-09-21T14:01:45.151Z,0.80
2022-09-21T14:04:21.519Z,0.55
2022-09-21T14:06:52.290Z,0.30
2022-09-21T14:09:25.577Z,0.40
2022-09-21T14:11:58.754Z,0.40
2022-09-21T14:14:31.051Z,0.43
2022-09-21T14:17:00.023Z,0.40
2022-09-21T14:20:03.943Z,0.38
2022-09-21T14:22:41.742Z,0.32
2022-09-21T14:25:26.725Z,0.40
2022-09-21T14:27:59.210Z,0.47
2022-09-21T14:30:28.983Z,0.40
2022-09-21T14:33:16.676Z,0.30
2022-09-21T14:35:47.308Z,0.60
2022-09-21T14:38:21.589Z,0.45
2022-09-21T14:43:23.675Z,0.30
2022-09-21T14:46:17.650Z,0.40
2022-09-21T14:48:57.022Z,0.40
2022-09-21T14:51:36.050Z,0.20
2022-09-21T14:54:20.963Z,0.20
2022-09-21T14:57:00.460Z,0.30
2022-09-21T14:59:48.644Z,0.30
2022-09-21T15:02:22.004Z,0.22
2022-09-21T15:05:01.698Z,0.30
2022-09-21T15:07:57.041Z,0.35
2022-09-21T15:10:51.842Z,0.40
2022-09-21T15:13:38.247Z,0.30
2022-09-21T15:16:23.371Z,0.23
2022-09-21T15:18:52.303Z,0.38
2022-09-21T15:21:24.129Z,0.30
2022-09-21T15:23:53.071Z,0.30
2022-09-21T15:26:26.568Z,0.28
2022-09-21T15:29:11.510Z,0.30
2022-09-21T15:31:41.156Z,0.40
2022-09-21T15:34:10.731Z,0.35
2022-09-21T15:36:40.450Z,0.73
2022-09-21T15:39:09.337Z,0.70
2022-09-21T15:41:44.797Z,0.50
2022-09-21T15:44:16.832Z,0.40
2022-09-21T15:46:48.048Z,0.35
2022-09-21T15:49:17.827Z,0.50
2022-09-21T15:51:46.020Z,0.50
2022-09-21T15:54:30.463Z,0.50
2022-09-21T15:56:59.703Z,0.55
2022-09-21T15:59:29.435Z,0.50
2022-09-21T16:02:00.791Z,0.43
2022-09-21T16:04:29.855Z,0.40
2022-09-21T16:07:04.081Z,0.50
2022-09-21T16:12:42.207Z,0.20
2022-09-21T16:15:17.928Z,0.35
2022-09-21T16:17:57.852Z,0.50
2022-09-21T16:20:26.694Z,0.47
2022-09-21T16:23:04.607Z,0.40
2022-09-21T16:25:36.963Z,0.40
2022-09-21T16:28:12.692Z,0.30
2022-09-21T16:30:51.016Z,0.30
2022-09-21T16:33:58.119Z,0.30
2022-09-21T16:36:45.292Z,0.30
2022-09-21T16:39:15.735Z,0.30
2022-09-21T16:41:53.161Z,0.52
2022-09-21T16:44:25.520Z,0.50
2022-09-21T16:46:56.225Z,0.60
2022-09-21T16:49:30.238Z,0.50
2022-09-21T16:51:59.307Z,0.40
2022-09-21T16:54:27.533Z,0.30
2022-09-21T16:56:57.295Z,0.40
2022-09-21T16:59:26.894Z,0.35
2022-09-21T17:01:56.718Z,0.30
2022-09-21T17:04:26.241Z,0.32
2022-09-21T17:06:54.870Z,0.30
2022-09-21T17:09:29.180Z,0.40
2022-09-21T17:11:57.736Z,0.40
2022-09-21T17:14:26.447Z,0.40
2022-09-21T17:16:57.255Z,0.40
2022-09-21T17:19:25.117Z,0.40
2022-09-21T17:21:52.631Z,0.38
2022-09-21T17:24:45.909Z,0.43
2022-09-21T17:27:07.335Z,0.40
2022-09-21T17:29:37.047Z,0.50
2022-09-21T17:32:06.789Z,0.40
2022-09-21T17:34:34.850Z,0.50
2022-09-21T17:37:02.177Z,0.40
2022-09-21T17:39:29.551Z,0.40
2022-09-21T17:42:02.312Z,0.40
2022-09-21T17:44:45.407Z,0.40
2022-09-21T17:47:20.001Z,0.40
2022-09-21T17:49:48.179Z,0.40
2022-09-21T17:52:35.336Z,0.40
2022-09-21T17:55:06.017Z,0.40
2022-09-21T17:57:47.838Z,0.40
2022-09-21T18:00:20.606Z,0.30
2022-09-21T18:02:49.597Z,0.40
2022-09-21T18:05:23.211Z,0.40
2022-09-21T18:07:51.932Z,0.30
2022-09-21T18:10:20.238Z,0.30
2022-09-21T18:13:03.875Z,1.08
2022-09-21T18:15:41.326Z,1.15
2022-09-21T18:18:18.242Z,1.30
2022-09-21T18:20:57.649Z,1.65
2022-09-21T18:23:33.758Z,1.23
2022-09-21T18:26:01.734Z,1.25
2022-09-21T18:28:40.381Z,1.13
2022-09-21T18:31:24.217Z,0.80
2022-09-21T18:33:57.647Z,0.70
2022-09-21T18:36:31.507Z,0.70
2022-09-21T18:39:13.692Z,0.80
2022-09-21T18:41:50.666Z,0.65
2022-09-21T18:44:25.097Z,0.70
2022-09-21T18:47:05.630Z,0.55
2022-09-21T18:49:46.265Z,0.50
2022-09-21T18:52:24.628Z,0.47
2022-09-21T18:54:53.022Z,0.40
2022-09-21T18:57:22.953Z,0.40
2022-09-21T18:59:51.114Z,0.40
2022-09-21T19:02:20.914Z,0.40
2022-09-21T19:04:49.646Z,0.40
2022-09-21T19:07:27.535Z,0.40
2022-09-21T19:10:05.254Z,0.40
2022-09-21T19:12:49.026Z,0.38
2022-09-21T19:15:42.084Z,0.40
2022-09-21T19:18:19.951Z,0.30
2022-09-21T19:20:58.506Z,0.38
2022-09-21T19:23:38.212Z,0.40
2022-09-21T19:26:13.371Z,0.40
2022-09-21T19:29:00.997Z,0.40
2022-09-21T19:31:29.309Z,0.50
2022-09-21T19:33:58.336Z,0.40
2022-09-21T19:36:25.885Z,0.30
2022-09-21T19:38:54.082Z,0.38
2022-09-21T19:41:35.001Z,0.40
2022-09-21T19:44:15.192Z,0.32
2022-09-21T19:46:52.829Z,0.40
2022-09-21T19:49:24.504Z,0.32
2022-09-21T19:51:53.910Z,0.40
2022-09-21T19:54:40.970Z,0.32
2022-09-21T19:57:30.926Z,0.40
2022-09-21T19:59:58.788Z,0.30
2022-09-21T20:02:32.480Z,0.30
2022-09-21T20:05:06.902Z,0.30
2022-09-21T20:10:31.566Z,0.30
2022-09-21T20:13:09.377Z,0.35
2022-09-21T20:15:42.329Z,0.40
2022-09-21T20:18:21.399Z,0.40
2022-09-21T20:20:50.399Z,0.70
2022-09-21T20:23:18.349Z,0.40
2022-09-21T20:25:52.979Z,0.40
2022-09-21T20:28:21.429Z,0.40
2022-09-21T20:30:50.053Z,0.40
2022-09-21T20:33:22.576Z,0.40
2022-09-21T20:35:55.274Z,0.40
2022-09-21T20:38:23.036Z,0.45
2022-09-21T20:40:51.381Z,0.40
2022-09-21T20:43:19.874Z,0.40
2022-09-21T20:45:50.175Z,0.30
2022-09-21T20:48:17.932Z,0.40
2022-09-21T20:50:47.671Z,0.40
2022-09-21T20:53:16.518Z,0.35
2022-09-21T20:55:52.774Z,0.40
2022-09-21T20:58:20.106Z,0.30
2022-09-21T21:00:47.490Z,0.40
2022-09-21T21:03:14.910Z,0.50
2022-09-21T21:05:42.388Z,0.30
2022-09-21T21:08:09.967Z,0.35
2022-09-21T21:10:38.730Z,0.30
2022-09-21T21:13:06.092Z,0.30
2022-09-21T21:15:33.466Z,0.70
2022-09-21T21:18:00.777Z,0.40
2022-09-21T21:20:28.966Z,0.40
2022-09-21T21:22:56.295Z,0.40
2022-09-21T21:25:23.631Z,0.40
2022-09-21T21:27:57.245Z,0.40
2022-09-21T21:30:25.370Z,0.40
2022-09-21T21:32:53.075Z,0.38
2022-09-21T21:35:20.407Z,0.40
2022-09-21T21:37:47.882Z,0.32
2022-09-21T21:40:15.681Z,0.43
2022-09-21T21:42:43.081Z,0.45
2022-09-21T21:45:11.995Z,0.40
2022-09-21T21:47:40.834Z,0.40
2022-09-21T21:50:09.881Z,0.40
2022-09-21T21:52:37.342Z,0.30
2022-09-21T21:55:05.517Z,0.40
2022-09-21T21:57:33.202Z,0.40
2022-09-21T22:00:00.593Z,0.38
2022-09-21T22:02:29.663Z,0.40
2022-09-21T22:04:57.035Z,0.45
2022-09-21T22:07:24.457Z,0.35
2022-09-21T22:09:51.819Z,0.45
2022-09-21T22:12:19.522Z,0.40
2022-09-21T22:14:47.636Z,0.40
2022-09-21T22:17:15.179Z,0.40
2022-09-21T22:19:43.928Z,0.40
2022-09-21T22:22:11.253Z,0.35
2022-09-21T22:24:38.599Z,0.30
2022-09-21T22:27:06.011Z,0.30
2022-09-21T22:29:33.361Z,0.40
2022-09-21T22:32:00.869Z,0.40
2022-09-21T22:34:28.261Z,0.30
2022-09-21T22:36:59.259Z,0.40
2022-09-21T22:39:26.631Z,0.40
2022-09-21T22:41:53.978Z,0.40
2022-09-21T22:44:21.364Z,0.43
2022-09-21T22:46:48.698Z,0.40
2022-09-21T22:49:16.023Z,0.30
2022-09-21T22:51:43.361Z,0.40
2022-09-21T22:54:12.033Z,0.40
2022-09-21T22:56:39.439Z,0.47
2022-09-21T22:59:07.171Z,0.40
2022-09-21T23:01:36.346Z,0.40
2022-09-21T23:04:07.749Z,0.40
2022-09-21T23:06:37.010Z,0.40
2022-09-21T23:09:07.575Z,0.30
2022-09-21T23:11:38.510Z,0.40
2022-09-21T23:14:06.542Z,0.30
2022-09-21T23:16:34.082Z,0.30
2022-09-21T23:19:01.621Z,0.30
2022-09-21T23:21:30.587Z,0.40
2022-09-21T23:23:59.787Z,0.30
2022-09-21T23:26:28.464Z,0.40
2022-09-21T23:28:58.427Z,0.40
2022-09-21T23:31:27.399Z,0.38
2022-09-21T23:33:57.821Z,0.38
2022-09-21T23:36:26.955Z,0.30
2022-09-21T23:38:55.464Z,0.38
2022-09-21T23:41:24.284Z,0.40
2022-09-21T23:43:52.473Z,0.50
2022-09-21T23:46:23.123Z,0.38
2022-09-21T23:48:51.157Z,0.40
2022-09-21T23:51:19.577Z,0.40
2022-09-21T23:53:47.314Z,0.70
2022-09-21T23:56:16.832Z,0.50
2022-09-21T23:58:44.246Z,0.40
